^^
Saratoga-Weather Station Historical Data
Daily Summary for September 23, 2020 Units:  Both    English   Metric
Daily Weekly Monthly Yearly Custom
  High: Low: Average:
Temperature: 75.6 °F /  24.2 °C 47.8 °F /  8.8 °C 61 °F /  16.1 °C
Dew Point: 47.1 °F /  8.4 °C 36.7 °F /  2.6 °C 40.5 °F /  4.7 °C
Humidity: 70% 26% 49%
Wind Speed: 8.1mph /  13km/h - 1.2mph /  1.9km/h
Wind Gust: 9mph /  14.5km/h - -
Wind- - SSE
Pressure: 30.1 in /  1018.6 hPa 30 in /  1014.6 hPa -
Precipitation: 0 in /  0.0 mm    
Historical Graphs
 
 
Tabular Data for September 23, 2020
Time Temperature Dew Point Pressure Wind Wind Speed Wind Gust Humidity Rainfall Rate (Hourly) solar
00:01 54.9 °F /  12.7 °C 37.6 °F /  3.1 °C 30in /  1016.3hPa SW 0.9mph /  1.4km/h 1mph /  1.6km/h 52% 0in /  0.0mm 0 W/m2
00:06 55 °F /  12.8 °C 36.7 °F /  2.6 °C 30in /  1016.3hPa West 0.9mph /  1.4km/h 3mph /  4.8km/h 50% 0in /  0.0mm 0 W/m2
00:11 55.6 °F /  13.1 °C 37.2 °F /  2.9 °C 30in /  1016.3hPa SW 0.9mph /  1.4km/h 2mph /  3.2km/h 50% 0in /  0.0mm 0 W/m2
00:16 55.6 °F /  13.1 °C 37.8 °F /  3.2 °C 30in /  1016.3hPa Calm   3mph /  4.8km/h 51% 0in /  0.0mm 0 W/m2
00:21 55.4 °F /  13 °C 38.1 °F /  3.4 °C 30in /  1016.3hPa Calm   2mph /  3.2km/h 52% 0in /  0.0mm 0 W/m2
00:26 55 °F /  12.8 °C 37.8 °F /  3.2 °C 30in /  1016.3hPa SW 0.9mph /  1.4km/h 3mph /  4.8km/h 52% 0in /  0.0mm 0 W/m2
00:31 54.9 °F /  12.7 °C 37.6 °F /  3.1 °C 30in /  1016.3hPa Calm   2mph /  3.2km/h 52% 0in /  0.0mm 0 W/m2
00:36 54.5 °F /  12.5 °C 37.8 °F /  3.2 °C 30in /  1016.3hPa SW 0.9mph /  1.4km/h 1mph /  1.6km/h 53% 0in /  0.0mm 0 W/m2
00:41 54.1 °F /  12.3 °C 37.9 °F /  3.3 °C 30in /  1016.6hPa SW 0.9mph /  1.4km/h 2mph /  3.2km/h 54% 0in /  0.0mm 0 W/m2
00:46 53.8 °F /  12.1 °C 37.9 °F /  3.3 °C 30in /  1016.6hPa SW 2mph /  3.2km/h 2mph /  3.2km/h 55% 0in /  0.0mm 0 W/m2
00:51 53.4 °F /  11.9 °C 37.6 °F /  3.1 °C 30in /  1016.6hPa Calm   1mph /  1.6km/h 55% 0in /  0.0mm 0 W/m2
00:56 53.4 °F /  11.9 °C 38.1 °F /  3.4 °C 30in /  1016.6hPa SW 0.9mph /  1.4km/h 2mph /  3.2km/h 56% 0in /  0.0mm 0 W/m2
01:01 53.4 °F /  11.9 °C 38.1 °F /  3.4 °C 30in /  1016.6hPa SW 2mph /  3.2km/h 2mph /  3.2km/h 56% 0in /  0.0mm 0 W/m2
01:06 53.2 °F /  11.8 °C 38.5 °F /  3.6 °C 30in /  1016.6hPa SW 0.9mph /  1.4km/h 1mph /  1.6km/h 57% 0in /  0.0mm 0 W/m2
01:11 53.1 °F /  11.7 °C 38.3 °F /  3.5 °C 30in /  1016.6hPa Calm   3mph /  4.8km/h 57% 0in /  0.0mm 0 W/m2
01:16 53.1 °F /  11.7 °C 38.3 °F /  3.5 °C 30in /  1016.6hPa Calm   2mph /  3.2km/h 57% 0in /  0.0mm 0 W/m2
01:21 53.1 °F /  11.7 °C 38.3 °F /  3.5 °C 30in /  1016.6hPa Calm   3mph /  4.8km/h 57% 0in /  0.0mm 0 W/m2
01:26 53.2 °F /  11.8 °C 38.5 °F /  3.6 °C 30in /  1016.6hPa Calm   1mph /  1.6km/h 57% 0in /  0.0mm 0 W/m2
01:32 53.2 °F /  11.8 °C 38.5 °F /  3.6 °C 30in /  1016.6hPa WSW 0.9mph /  1.4km/h 2mph /  3.2km/h 57% 0in /  0.0mm 0 W/m2
01:37 53.2 °F /  11.8 °C 38.5 °F /  3.6 °C 30in /  1016.6hPa West 0.9mph /  1.4km/h 3mph /  4.8km/h 57% 0in /  0.0mm 0 W/m2
01:42 53.2 °F /  11.8 °C 38.5 °F /  3.6 °C 30in /  1016.6hPa NNW 2mph /  3.2km/h 2mph /  3.2km/h 57% 0in /  0.0mm 0 W/m2
01:47 53.2 °F /  11.8 °C 38.8 °F /  3.8 °C 30in /  1016.6hPa WSW 2mph /  3.2km/h 3mph /  4.8km/h 58% 0in /  0.0mm 0 W/m2
01:52 53.2 °F /  11.8 °C 38.5 °F /  3.6 °C 30in /  1016.6hPa WSW 0.9mph /  1.4km/h 2mph /  3.2km/h 57% 0in /  0.0mm 0 W/m2
01:57 53.2 °F /  11.8 °C 39.2 °F /  4 °C 30in /  1016.6hPa WSW 0.9mph /  1.4km/h 3mph /  4.8km/h 59% 0in /  0.0mm 0 W/m2
02:02 53.2 °F /  11.8 °C 39.2 °F /  4 °C 30in /  1016.6hPa WSW 0.9mph /  1.4km/h 1mph /  1.6km/h 59% 0in /  0.0mm 0 W/m2
02:07 52.9 °F /  11.6 °C 39 °F /  3.9 °C 30in /  1016.9hPa WSW 2mph /  3.2km/h 2mph /  3.2km/h 59% 0in /  0.0mm 0 W/m2
02:12 52.5 °F /  11.4 °C 39 °F /  3.9 °C 30in /  1016.9hPa Calm   1mph /  1.6km/h 60% 0in /  0.0mm 0 W/m2
02:17 52.3 °F /  11.3 °C 38.5 °F /  3.6 °C 30in /  1016.9hPa WNW 0.9mph /  1.4km/h 2mph /  3.2km/h 59% 0in /  0.0mm 0 W/m2
02:22 52.5 °F /  11.4 °C 38.7 °F /  3.7 °C 30in /  1016.9hPa WNW 0.9mph /  1.4km/h 2mph /  3.2km/h 59% 0in /  0.0mm 0 W/m2
02:27 52.9 °F /  11.6 °C 38.5 °F /  3.6 °C 30in /  1016.9hPa WNW 0.9mph /  1.4km/h 4mph /  6.4km/h 58% 0in /  0.0mm 0 W/m2
02:32 53.1 °F /  11.7 °C 38.3 °F /  3.5 °C 30in /  1016.9hPa WNW 2mph /  3.2km/h 2mph /  3.2km/h 57% 0in /  0.0mm 0 W/m2
02:37 53.2 °F /  11.8 °C 38.8 °F /  3.8 °C 30in /  1016.9hPa Calm   3mph /  4.8km/h 58% 0in /  0.0mm 0 W/m2
02:42 53.4 °F /  11.9 °C 38.1 °F /  3.4 °C 30in /  1016.9hPa WNW 0.9mph /  1.4km/h 3mph /  4.8km/h 56% 0in /  0.0mm 0 W/m2
02:47 53.8 °F /  12.1 °C 38.5 °F /  3.6 °C 30in /  1016.9hPa WSW 0.9mph /  1.4km/h 2mph /  3.2km/h 56% 0in /  0.0mm 0 W/m2
02:52 54 °F /  12.2 °C 38.7 °F /  3.7 °C 30in /  1016.9hPa South 2mph /  3.2km/h 2mph /  3.2km/h 56% 0in /  0.0mm 0 W/m2
02:57 53.8 °F /  12.1 °C 38.8 °F /  3.8 °C 30in /  1016.9hPa South 0.9mph /  1.4km/h 2mph /  3.2km/h 57% 0in /  0.0mm 0 W/m2
03:02 53.4 °F /  11.9 °C 39 °F /  3.9 °C 30in /  1016.9hPa SSW 2mph /  3.2km/h 2mph /  3.2km/h 58% 0in /  0.0mm 0 W/m2
03:07 53.2 °F /  11.8 °C 38.8 °F /  3.8 °C 30in /  1016.9hPa SSW 0.9mph /  1.4km/h 1mph /  1.6km/h 58% 0in /  0.0mm 0 W/m2
03:12 52.7 °F /  11.5 °C 39.2 °F /  4 °C 30in /  1016.9hPa Calm   1mph /  1.6km/h 60% 0in /  0.0mm 0 W/m2
03:17 52.3 °F /  11.3 °C 38.5 °F /  3.6 °C 30in /  1016.9hPa Calm   3mph /  4.8km/h 59% 0in /  0.0mm 0 W/m2
03:22 52.2 °F /  11.2 °C 38.7 °F /  3.7 °C 30in /  1016.9hPa Calm   1mph /  1.6km/h 60% 0in /  0.0mm 0 W/m2
03:27 52.2 °F /  11.2 °C 38.7 °F /  3.7 °C 30in /  1016.9hPa NW 0.9mph /  1.4km/h 1mph /  1.6km/h 60% 0in /  0.0mm 0 W/m2
03:32 52.2 °F /  11.2 °C 38.7 °F /  3.7 °C 30in /  1016.9hPa Calm   2mph /  3.2km/h 60% 0in /  0.0mm 0 W/m2
03:37 52.2 °F /  11.2 °C 39.2 °F /  4 °C 30in /  1016.9hPa NNE 0.9mph /  1.4km/h 1mph /  1.6km/h 61% 0in /  0.0mm 0 W/m2
03:42 52 °F /  11.1 °C 39.4 °F /  4.1 °C 30in /  1016.9hPa Calm   3mph /  4.8km/h 62% 0in /  0.0mm 0 W/m2
03:47 51.4 °F /  10.8 °C 38.8 °F /  3.8 °C 30in /  1016.9hPa Calm   2mph /  3.2km/h 62% 0in /  0.0mm 0 W/m2
03:52 51.4 °F /  10.8 °C 38.5 °F /  3.6 °C 30in /  1016.9hPa Calm   2mph /  3.2km/h 61% 0in /  0.0mm 0 W/m2
03:57 51.6 °F /  10.9 °C 38.1 °F /  3.4 °C 30in /  1016.9hPa Calm   1mph /  1.6km/h 60% 0in /  0.0mm 0 W/m2
04:02 51.8 °F /  11 °C 38.3 °F /  3.5 °C 30in /  1016.9hPa ESE 0.9mph /  1.4km/h 1mph /  1.6km/h 60% 0in /  0.0mm 0 W/m2
04:07 51.8 °F /  11 °C 38.3 °F /  3.5 °C 30in /  1016.9hPa Calm   2mph /  3.2km/h 60% 0in /  0.0mm 0 W/m2
04:12 51.8 °F /  11 °C 38.8 °F /  3.8 °C 30in /  1016.9hPa Calm   2mph /  3.2km/h 61% 0in /  0.0mm 0 W/m2
04:17 51.6 °F /  10.9 °C 38.7 °F /  3.7 °C 30in /  1017.3hPa WSW 0.9mph /  1.4km/h 2mph /  3.2km/h 61% 0in /  0.0mm 0 W/m2
04:23 51.3 °F /  10.7 °C 38.7 °F /  3.7 °C 30in /  1017.3hPa SW 0.9mph /  1.4km/h 2mph /  3.2km/h 62% 0in /  0.0mm 0 W/m2
04:28 51.1 °F /  10.6 °C 38.8 °F /  3.8 °C 30in /  1017.3hPa Calm   2mph /  3.2km/h 63% 0in /  0.0mm 0 W/m2
04:33 50.7 °F /  10.4 °C 39 °F /  3.9 °C 30in /  1017.3hPa Calm   2mph /  3.2km/h 64% 0in /  0.0mm 0 W/m2
04:38 50.5 °F /  10.3 °C 38.8 °F /  3.8 °C 30in /  1017.3hPa Calm     64% 0in /  0.0mm 0 W/m2
04:43 50.4 °F /  10.2 °C 38.7 °F /  3.7 °C 30in /  1017.3hPa Calm   2mph /  3.2km/h 64% 0in /  0.0mm 0 W/m2
04:48 50.4 °F /  10.2 °C 38.7 °F /  3.7 °C 30in /  1017.3hPa SW 2mph /  3.2km/h 2mph /  3.2km/h 64% 0in /  0.0mm 0 W/m2
04:53 50.2 °F /  10.1 °C 38.5 °F /  3.6 °C 30in /  1017.3hPa Calm   1mph /  1.6km/h 64% 0in /  0.0mm 0 W/m2
04:58 50 °F /  10 °C 38.7 °F /  3.7 °C 30in /  1017.3hPa SSW 2mph /  3.2km/h 2mph /  3.2km/h 65% 0in /  0.0mm 0 W/m2
05:03 49.8 °F /  9.9 °C 38.8 °F /  3.8 °C 30in /  1017.3hPa Calm   2mph /  3.2km/h 66% 0in /  0.0mm 0 W/m2
05:08 49.5 °F /  9.7 °C 38.7 °F /  3.7 °C 30in /  1017.3hPa SSW 2mph /  3.2km/h 2mph /  3.2km/h 66% 0in /  0.0mm 0 W/m2
05:13 49.3 °F /  9.6 °C 38.8 °F /  3.8 °C 30in /  1017.3hPa SSW 0.9mph /  1.4km/h 2mph /  3.2km/h 67% 0in /  0.0mm 0 W/m2
05:18 48.9 °F /  9.4 °C 38.5 °F /  3.6 °C 30in /  1017.3hPa Calm   1mph /  1.6km/h 67% 0in /  0.0mm 0 W/m2
05:23 48.7 °F /  9.3 °C 38.7 °F /  3.7 °C 30in /  1017.3hPa SSW 0.9mph /  1.4km/h 1mph /  1.6km/h 68% 0in /  0.0mm 0 W/m2
05:28 48.7 °F /  9.3 °C 38.7 °F /  3.7 °C 30in /  1017.3hPa SSW 0.9mph /  1.4km/h 2mph /  3.2km/h 68% 0in /  0.0mm 0 W/m2
05:33 48.6 °F /  9.2 °C 38.5 °F /  3.6 °C 30in /  1017.3hPa Calm   1mph /  1.6km/h 68% 0in /  0.0mm 0 W/m2
05:38 48.6 °F /  9.2 °C 38.8 °F /  3.8 °C 30in /  1017.3hPa SSW 0.9mph /  1.4km/h 2mph /  3.2km/h 69% 0in /  0.0mm 0 W/m2
05:43 48.4 °F /  9.1 °C 38.7 °F /  3.7 °C 30in /  1017.3hPa Calm   1mph /  1.6km/h 69% 0in /  0.0mm 0 W/m2
05:48 48.2 °F /  9 °C 38.5 °F /  3.6 °C 30in /  1017.3hPa Calm   1mph /  1.6km/h 69% 0in /  0.0mm 0 W/m2
05:53 48 °F /  8.9 °C 38.3 °F /  3.5 °C 30in /  1017.3hPa Calm     69% 0in /  0.0mm 0 W/m2
05:58 47.8 °F /  8.8 °C 38.5 °F /  3.6 °C 30in /  1017.3hPa SSW 0.9mph /  1.4km/h 2mph /  3.2km/h 70% 0in /  0.0mm 0 W/m2
06:03 48 °F /  8.9 °C 38.7 °F /  3.7 °C 30in /  1017.3hPa Calm     70% 0in /  0.0mm 0 W/m2
06:08 48 °F /  8.9 °C 38.7 °F /  3.7 °C 30in /  1017.3hPa SSW 0.9mph /  1.4km/h 1mph /  1.6km/h 70% 0in /  0.0mm 0 W/m2
06:13 48.2 °F /  9 °C 38.8 °F /  3.8 °C 30in /  1017.3hPa Calm   1mph /  1.6km/h 70% 0in /  0.0mm 0 W/m2
06:18 48 °F /  8.9 °C 38.7 °F /  3.7 °C 30in /  1017.3hPa Calm     70% 0in /  0.0mm 0 W/m2
06:23 48 °F /  8.9 °C 38.7 °F /  3.7 °C 30in /  1017.3hPa Calm     70% 0in /  0.0mm 0 W/m2
06:28 47.8 °F /  8.8 °C 38.5 °F /  3.6 °C 30in /  1017.3hPa Calm   1mph /  1.6km/h 70% 0in /  0.0mm 5 W/m2
06:33 47.8 °F /  8.8 °C 38.5 °F /  3.6 °C 30.1in /  1017.6hPa Calm   1mph /  1.6km/h 70% 0in /  0.0mm 7 W/m2
06:38 48.6 °F /  9.2 °C 38.1 °F /  3.4 °C 30.1in /  1017.6hPa Calm   2mph /  3.2km/h 67% 0in /  0.0mm 9 W/m2
06:43 48.9 °F /  9.4 °C 38.1 °F /  3.4 °C 30.1in /  1017.6hPa Calm   1mph /  1.6km/h 66% 0in /  0.0mm 11 W/m2
06:48 49.1 °F /  9.5 °C 38.7 °F /  3.7 °C 30.1in /  1017.6hPa SSW 0.9mph /  1.4km/h 2mph /  3.2km/h 67% 0in /  0.0mm 12 W/m2
06:53 48.9 °F /  9.4 °C 38.8 °F /  3.8 °C 30.1in /  1017.6hPa SSW 0.9mph /  1.4km/h 2mph /  3.2km/h 68% 0in /  0.0mm 16 W/m2
06:58 48.9 °F /  9.4 °C 38.8 °F /  3.8 °C 30.1in /  1017.6hPa SSW 0.9mph /  1.4km/h 1mph /  1.6km/h 68% 0in /  0.0mm 18 W/m2
07:03 48.9 °F /  9.4 °C 38.5 °F /  3.6 °C 30.1in /  1017.6hPa SSW 0.9mph /  1.4km/h 1mph /  1.6km/h 67% 0in /  0.0mm 19 W/m2
07:08 49.3 °F /  9.6 °C 38.5 °F /  3.6 °C 30.1in /  1017.6hPa SSW 2mph /  3.2km/h 2mph /  3.2km/h 66% 0in /  0.0mm 21 W/m2
07:13 49.5 °F /  9.7 °C 37.8 °F /  3.2 °C 30.1in /  1017.6hPa Calm     64% 0in /  0.0mm 23 W/m2
07:18 49.6 °F /  9.8 °C 38.7 °F /  3.7 °C 30.1in /  1017.6hPa Calm   1mph /  1.6km/h 66% 0in /  0.0mm 25 W/m2
07:23 49.6 °F /  9.8 °C 38.7 °F /  3.7 °C 30.1in /  1018.0hPa SSE 2mph /  3.2km/h 2mph /  3.2km/h 66% 0in /  0.0mm 26 W/m2
07:28 49.6 °F /  9.8 °C 38.7 °F /  3.7 °C 30.1in /  1018.0hPa Calm     66% 0in /  0.0mm 28 W/m2
07:33 50 °F /  10 °C 38.3 °F /  3.5 °C 30.1in /  1018.0hPa Calm   2mph /  3.2km/h 64% 0in /  0.0mm 30 W/m2
07:38 50.4 °F /  10.2 °C 39 °F /  3.9 °C 30.1in /  1018.0hPa Calm     65% 0in /  0.0mm 40 W/m2
07:43 50.5 °F /  10.3 °C 38.8 °F /  3.8 °C 30.1in /  1018.0hPa Calm   3mph /  4.8km/h 64% 0in /  0.0mm 58 W/m2
07:48 50.9 °F /  10.5 °C 38.3 °F /  3.5 °C 30.1in /  1018.0hPa NNW 0.9mph /  1.4km/h 2mph /  3.2km/h 62% 0in /  0.0mm 35 W/m2
07:53 51.3 °F /  10.7 °C 38.3 °F /  3.5 °C 30.1in /  1018.0hPa NNE 0.9mph /  1.4km/h 2mph /  3.2km/h 61% 0in /  0.0mm 144 W/m2
07:58 51.6 °F /  10.9 °C 38.7 °F /  3.7 °C 30.1in /  1018.0hPa Calm   2mph /  3.2km/h 61% 0in /  0.0mm 120 W/m2
08:03 52 °F /  11.1 °C 39 °F /  3.9 °C 30.1in /  1018.0hPa WNW 0.9mph /  1.4km/h 1mph /  1.6km/h 61% 0in /  0.0mm 195 W/m2
08:08 52.3 °F /  11.3 °C 38.8 °F /  3.8 °C 30.1in /  1018.0hPa Calm   1mph /  1.6km/h 60% 0in /  0.0mm 213 W/m2
08:13 52.7 °F /  11.5 °C 40.5 °F /  4.7 °C 30.1in /  1018.0hPa North 0.9mph /  1.4km/h 1mph /  1.6km/h 63% 0in /  0.0mm 225 W/m2
08:18 53.4 °F /  11.9 °C 40.3 °F /  4.6 °C 30.1in /  1018.0hPa NE 0.9mph /  1.4km/h 2mph /  3.2km/h 61% 0in /  0.0mm 239 W/m2
08:23 54.1 °F /  12.3 °C 40.1 °F /  4.5 °C 30.1in /  1018.0hPa Calm   2mph /  3.2km/h 59% 0in /  0.0mm 255 W/m2
08:28 54.7 °F /  12.6 °C 40.3 °F /  4.6 °C 30.1in /  1018.3hPa ESE 2.9mph /  4.7km/h 4mph /  6.4km/h 58% 0in /  0.0mm 267 W/m2
08:33 54.7 °F /  12.6 °C 40.3 °F /  4.6 °C 30.1in /  1018.3hPa East 0.9mph /  1.4km/h 1mph /  1.6km/h 58% 0in /  0.0mm 276 W/m2
08:38 55 °F /  12.8 °C 40.5 °F /  4.7 °C 30.1in /  1018.3hPa NE 2mph /  3.2km/h 3mph /  4.8km/h 58% 0in /  0.0mm 292 W/m2
08:43 55.2 °F /  12.9 °C 40.6 °F /  4.8 °C 30.1in /  1018.3hPa NNW 0.9mph /  1.4km/h 1mph /  1.6km/h 58% 0in /  0.0mm 304 W/m2
08:48 55.6 °F /  13.1 °C 40.6 °F /  4.8 °C 30.1in /  1018.3hPa NNE 0.9mph /  1.4km/h 3mph /  4.8km/h 57% 0in /  0.0mm 316 W/m2
08:54 55.9 °F /  13.3 °C 39.9 °F /  4.4 °C 30.1in /  1018.3hPa Calm   2mph /  3.2km/h 55% 0in /  0.0mm 332 W/m2
08:59 56.1 °F /  13.4 °C 40.1 °F /  4.5 °C 30.1in /  1018.3hPa ENE 0.9mph /  1.4km/h 4mph /  6.4km/h 55% 0in /  0.0mm 350 W/m2
09:04 56.5 °F /  13.6 °C 40.5 °F /  4.7 °C 30.1in /  1018.3hPa ENE 0.9mph /  1.4km/h 2mph /  3.2km/h 55% 0in /  0.0mm 362 W/m2
09:09 56.7 °F /  13.7 °C 39.2 °F /  4 °C 30.1in /  1018.3hPa ESE 4mph /  6.4km/h 6mph /  9.7km/h 52% 0in /  0.0mm 374 W/m2
09:14 56.5 °F /  13.6 °C 39 °F /  3.9 °C 30.1in /  1018.3hPa East 2.9mph /  4.7km/h 3mph /  4.8km/h 52% 0in /  0.0mm 387 W/m2
09:19 56.7 °F /  13.7 °C 38.7 °F /  3.7 °C 30.1in /  1018.3hPa ENE 2.9mph /  4.7km/h 4mph /  6.4km/h 51% 0in /  0.0mm 399 W/m2
09:24 56.8 °F /  13.8 °C 38.8 °F /  3.8 °C 30.1in /  1018.3hPa East 2.9mph /  4.7km/h 6mph /  9.7km/h 51% 0in /  0.0mm 411 W/m2
09:29 57 °F /  13.9 °C 39 °F /  3.9 °C 30.1in /  1018.3hPa East 2mph /  3.2km/h 4mph /  6.4km/h 51% 0in /  0.0mm 422 W/m2
09:34 57.4 °F /  14.1 °C 39.9 °F /  4.4 °C 30.1in /  1018.6hPa ENE 4.9mph /  7.9km/h 5mph /  8km/h 52% 0in /  0.0mm 438 W/m2
09:39 57.6 °F /  14.2 °C 40.6 °F /  4.8 °C 30.1in /  1018.3hPa SE 2mph /  3.2km/h 4mph /  6.4km/h 53% 0in /  0.0mm 446 W/m2
09:44 58.3 °F /  14.6 °C 40.3 °F /  4.6 °C 30.1in /  1018.3hPa Calm   3mph /  4.8km/h 51% 0in /  0.0mm 459 W/m2
09:49 58.8 °F /  14.9 °C 40.8 °F /  4.9 °C 30.1in /  1018.3hPa East 2.9mph /  4.7km/h 4mph /  6.4km/h 51% 0in /  0.0mm 469 W/m2
09:54 59.4 °F /  15.2 °C 40.3 °F /  4.6 °C 30.1in /  1018.3hPa ESE 4mph /  6.4km/h 8mph /  12.9km/h 49% 0in /  0.0mm 54 W/m2
09:59 59.4 °F /  15.2 °C 40.6 °F /  4.8 °C 30.1in /  1018.3hPa Calm   2mph /  3.2km/h 50% 0in /  0.0mm 139 W/m2
10:04 60.1 °F /  15.6 °C 40.3 °F /  4.6 °C 30.1in /  1018.3hPa NE 2.9mph /  4.7km/h 7mph /  11.3km/h 48% 0in /  0.0mm 504 W/m2
10:09 60.3 °F /  15.7 °C 41 °F /  5 °C 30.1in /  1018.6hPa ENE 2mph /  3.2km/h 5mph /  8km/h 49% 0in /  0.0mm 517 W/m2
10:14 60.6 °F /  15.9 °C 40.8 °F /  4.9 °C 30.1in /  1018.3hPa ENE 2.9mph /  4.7km/h 6mph /  9.7km/h 48% 0in /  0.0mm 527 W/m2
10:19 61.2 °F /  16.2 °C 41.4 °F /  5.2 °C 30.1in /  1018.3hPa ENE 2mph /  3.2km/h 4mph /  6.4km/h 48% 0in /  0.0mm 538 W/m2
10:24 61.2 °F /  16.2 °C 41.9 °F /  5.5 °C 30.1in /  1018.3hPa SE 2.9mph /  4.7km/h 4mph /  6.4km/h 49% 0in /  0.0mm 550 W/m2
10:29 61.5 °F /  16.4 °C 41.7 °F /  5.4 °C 30.1in /  1018.3hPa East 0.9mph /  1.4km/h 3mph /  4.8km/h 48% 0in /  0.0mm 561 W/m2
10:34 62.1 °F /  16.7 °C 41 °F /  5 °C 30.1in /  1018.3hPa ENE 4mph /  6.4km/h 6mph /  9.7km/h 46% 0in /  0.0mm 570 W/m2
10:39 62.1 °F /  16.7 °C 41.5 °F /  5.3 °C 30.1in /  1018.3hPa NE 0.9mph /  1.4km/h 8mph /  12.9km/h 47% 0in /  0.0mm 580 W/m2
10:44 62.2 °F /  16.8 °C 41.7 °F /  5.4 °C 30.1in /  1018.3hPa SE 6.9mph /  11.1km/h 9mph /  14.5km/h 47% 0in /  0.0mm 592 W/m2
10:49 62.2 °F /  16.8 °C 41.7 °F /  5.4 °C 30.1in /  1018.3hPa ENE 0.9mph /  1.4km/h 2mph /  3.2km/h 47% 0in /  0.0mm 603 W/m2
10:54 62.2 °F /  16.8 °C 42.3 °F /  5.7 °C 30.1in /  1018.3hPa ENE 0.9mph /  1.4km/h 4mph /  6.4km/h 48% 0in /  0.0mm 606 W/m2
10:59 63 °F /  17.2 °C 43 °F /  6.1 °C 30.1in /  1018.3hPa SSW 0.9mph /  1.4km/h 3mph /  4.8km/h 48% 0in /  0.0mm 621 W/m2
11:04 63.3 °F /  17.4 °C 42.8 °F /  6 °C 30.1in /  1018.3hPa ENE 4mph /  6.4km/h 5mph /  8km/h 47% 0in /  0.0mm 629 W/m2
11:09 63.3 °F /  17.4 °C 41.5 °F /  5.3 °C 30.1in /  1018.3hPa ENE 2mph /  3.2km/h 3mph /  4.8km/h 45% 0in /  0.0mm 640 W/m2
11:14 63.9 °F /  17.7 °C 42.1 °F /  5.6 °C 30.1in /  1018.3hPa NNW 2mph /  3.2km/h 3mph /  4.8km/h 45% 0in /  0.0mm 647 W/m2
11:19 64.2 °F /  17.9 °C 41.9 °F /  5.5 °C 30.1in /  1018.0hPa East 0.9mph /  1.4km/h 8mph /  12.9km/h 44% 0in /  0.0mm 656 W/m2
11:24 65.1 °F /  18.4 °C 42.6 °F /  5.9 °C 30.1in /  1018.0hPa ESE 4mph /  6.4km/h 4mph /  6.4km/h 44% 0in /  0.0mm 663 W/m2
11:29 64.9 °F /  18.3 °C 41.9 °F /  5.5 °C 30.1in /  1018.0hPa East 2mph /  3.2km/h 3mph /  4.8km/h 43% 0in /  0.0mm 670 W/m2
11:34 65.1 °F /  18.4 °C 41.5 °F /  5.3 °C 30.1in /  1018.0hPa NE 2.9mph /  4.7km/h 6mph /  9.7km/h 42% 0in /  0.0mm 680 W/m2
11:39 65.5 °F /  18.6 °C 43 °F /  6.1 °C 30.1in /  1018.0hPa SE 2mph /  3.2km/h 4mph /  6.4km/h 44% 0in /  0.0mm 682 W/m2
11:44 65.8 °F /  18.8 °C 42.8 °F /  6 °C 30.1in /  1018.0hPa East 2mph /  3.2km/h 3mph /  4.8km/h 43% 0in /  0.0mm 693 W/m2
11:49 66.6 °F /  19.2 °C 41.5 °F /  5.3 °C 30.1in /  1018.0hPa NNW 2.9mph /  4.7km/h 4mph /  6.4km/h 40% 0in /  0.0mm 700 W/m2
11:54 66.4 °F /  19.1 °C 41.9 °F /  5.5 °C 30.1in /  1018.0hPa NNW 0.9mph /  1.4km/h 3mph /  4.8km/h 41% 0in /  0.0mm 703 W/m2
11:59 66.6 °F /  19.2 °C 42.8 °F /  6 °C 30.1in /  1018.0hPa North 0.9mph /  1.4km/h 7mph /  11.3km/h 42% 0in /  0.0mm 708 W/m2
12:04 67.3 °F /  19.6 °C 44.1 °F /  6.7 °C 30.1in /  1018.0hPa SE 4mph /  6.4km/h 4mph /  6.4km/h 43% 0in /  0.0mm 719 W/m2
12:09 67.6 °F /  19.8 °C 43.2 °F /  6.2 °C 30.1in /  1017.6hPa ENE 2mph /  3.2km/h 7mph /  11.3km/h 41% 0in /  0.0mm 724 W/m2
12:14 68.2 °F /  20.1 °C 42.3 °F /  5.7 °C 30.1in /  1017.6hPa SSE 6mph /  9.7km/h 6mph /  9.7km/h 39% 0in /  0.0mm 731 W/m2
12:20 68.4 °F /  20.2 °C 43.2 °F /  6.2 °C 30.1in /  1017.6hPa ESE 0.9mph /  1.4km/h 5mph /  8km/h 40% 0in /  0.0mm 737 W/m2
12:25 68.5 °F /  20.3 °C 42.6 °F /  5.9 °C 30.1in /  1017.6hPa NE 0.9mph /  1.4km/h 7mph /  11.3km/h 39% 0in /  0.0mm 740 W/m2
12:30 68.4 °F /  20.2 °C 42.4 °F /  5.8 °C 30.1in /  1017.6hPa SE 2mph /  3.2km/h 7mph /  11.3km/h 39% 0in /  0.0mm 745 W/m2
12:35 68.5 °F /  20.3 °C 42.6 °F /  5.9 °C 30.1in /  1017.6hPa ENE 2mph /  3.2km/h 2mph /  3.2km/h 39% 0in /  0.0mm 751 W/m2
12:40 68.7 °F /  20.4 °C 43.3 °F /  6.3 °C 30.1in /  1017.6hPa NE 2mph /  3.2km/h 5mph /  8km/h 40% 0in /  0.0mm 754 W/m2
12:45 69.1 °F /  20.6 °C 42.4 °F /  5.8 °C 30.1in /  1017.6hPa Calm   3mph /  4.8km/h 38% 0in /  0.0mm 756 W/m2
12:50 69.1 °F /  20.6 °C 42.4 °F /  5.8 °C 30in /  1017.3hPa Calm   4mph /  6.4km/h 38% 0in /  0.0mm 759 W/m2
12:55 69.3 °F /  20.7 °C 43.2 °F /  6.2 °C 30in /  1017.3hPa NE 2.9mph /  4.7km/h 4mph /  6.4km/h 39% 0in /  0.0mm 759 W/m2
13:00 69.6 °F /  20.9 °C 42.3 °F /  5.7 °C 30in /  1017.3hPa East 2.9mph /  4.7km/h 3mph /  4.8km/h 37% 0in /  0.0mm 765 W/m2
13:05 70 °F /  21.1 °C 42.4 °F /  5.8 °C 30in /  1017.3hPa NNW 0.9mph /  1.4km/h 3mph /  4.8km/h 37% 0in /  0.0mm 768 W/m2
13:10 70.2 °F /  21.2 °C 42.6 °F /  5.9 °C 30in /  1017.3hPa NNE 4mph /  6.4km/h 6mph /  9.7km/h 37% 0in /  0.0mm 768 W/m2
13:15 70.2 °F /  21.2 °C 41.9 °F /  5.5 °C 30in /  1017.3hPa Calm   6mph /  9.7km/h 36% 0in /  0.0mm 768 W/m2
13:20 70.3 °F /  21.3 °C 41.4 °F /  5.2 °C 30in /  1016.9hPa ESE 4mph /  6.4km/h 9mph /  14.5km/h 35% 0in /  0.0mm 772 W/m2
13:25 70.3 °F /  21.3 °C 42.1 °F /  5.6 °C 30in /  1016.9hPa East 2.9mph /  4.7km/h 4mph /  6.4km/h 36% 0in /  0.0mm 772 W/m2
13:30 70.5 °F /  21.4 °C 42.3 °F /  5.7 °C 30in /  1016.9hPa ESE 2mph /  3.2km/h 6mph /  9.7km/h 36% 0in /  0.0mm 772 W/m2
13:35 71.1 °F /  21.7 °C 43.5 °F /  6.4 °C 30in /  1016.9hPa ESE 2mph /  3.2km/h 4mph /  6.4km/h 37% 0in /  0.0mm 773 W/m2
13:40 71.4 °F /  21.9 °C 43.2 °F /  6.2 °C 30in /  1016.9hPa Calm   4mph /  6.4km/h 36% 0in /  0.0mm 772 W/m2
13:45 71.4 °F /  21.9 °C 43.2 °F /  6.2 °C 30in /  1016.9hPa WNW 4mph /  6.4km/h 4mph /  6.4km/h 36% 0in /  0.0mm 773 W/m2
13:50 71.1 °F /  21.7 °C 40.5 °F /  4.7 °C 30in /  1016.9hPa NNE 0.9mph /  1.4km/h 2mph /  3.2km/h 33% 0in /  0.0mm 772 W/m2
13:55 71.1 °F /  21.7 °C 40.5 °F /  4.7 °C 30in /  1016.9hPa ENE 4.9mph /  7.9km/h 7mph /  11.3km/h 33% 0in /  0.0mm 768 W/m2
14:00 71.4 °F /  21.9 °C 41.5 °F /  5.3 °C 30in /  1016.9hPa ENE 2mph /  3.2km/h 4mph /  6.4km/h 34% 0in /  0.0mm 763 W/m2
14:05 71.8 °F /  22.1 °C 43.3 °F /  6.3 °C 30in /  1016.9hPa East 2mph /  3.2km/h 3mph /  4.8km/h 36% 0in /  0.0mm 758 W/m2
14:10 72.3 °F /  22.4 °C 42.4 °F /  5.8 °C 30in /  1016.9hPa East 2mph /  3.2km/h 6mph /  9.7km/h 34% 0in /  0.0mm 759 W/m2
14:15 72.3 °F /  22.4 °C 40.8 °F /  4.9 °C 30in /  1016.9hPa ESE 8.1mph /  13km/h 8mph /  12.9km/h 32% 0in /  0.0mm 759 W/m2
14:20 72.3 °F /  22.4 °C 41.5 °F /  5.3 °C 30in /  1016.9hPa SE 0.9mph /  1.4km/h 4mph /  6.4km/h 33% 0in /  0.0mm 754 W/m2
14:25 72.3 °F /  22.4 °C 40.8 °F /  4.9 °C 30in /  1016.9hPa NW 4.9mph /  7.9km/h 5mph /  8km/h 32% 0in /  0.0mm 752 W/m2
14:30 72.3 °F /  22.4 °C 40.8 °F /  4.9 °C 30in /  1016.9hPa East 2.9mph /  4.7km/h 7mph /  11.3km/h 32% 0in /  0.0mm 752 W/m2
14:35 72.3 °F /  22.4 °C 39.9 °F /  4.4 °C 30in /  1016.6hPa WNW 2.9mph /  4.7km/h 5mph /  8km/h 31% 0in /  0.0mm 745 W/m2
14:40 72.3 °F /  22.4 °C 40.8 °F /  4.9 °C 30in /  1016.6hPa SSW 0.9mph /  1.4km/h 2mph /  3.2km/h 32% 0in /  0.0mm 740 W/m2
14:45 72.5 °F /  22.5 °C 40.1 °F /  4.5 °C 30in /  1016.6hPa ENE 2mph /  3.2km/h 2mph /  3.2km/h 31% 0in /  0.0mm 733 W/m2
14:50 72.3 °F /  22.4 °C 39.9 °F /  4.4 °C 30in /  1016.6hPa WSW 2mph /  3.2km/h 3mph /  4.8km/h 31% 0in /  0.0mm 728 W/m2
14:55 72.7 °F /  22.6 °C 40.3 °F /  4.6 °C 30in /  1016.6hPa East 2mph /  3.2km/h 6mph /  9.7km/h 31% 0in /  0.0mm 726 W/m2
15:00 72.9 °F /  22.7 °C 42.1 °F /  5.6 °C 30in /  1016.3hPa NNE 0.9mph /  1.4km/h 2mph /  3.2km/h 33% 0in /  0.0mm 719 W/m2
15:05 73.4 °F /  23 °C 41 °F /  5 °C 30in /  1016.3hPa ENE 2.9mph /  4.7km/h 7mph /  11.3km/h 31% 0in /  0.0mm 714 W/m2
15:10 73.4 °F /  23 °C 40.1 °F /  4.5 °C 30in /  1016.3hPa NE 2mph /  3.2km/h 8mph /  12.9km/h 30% 0in /  0.0mm 708 W/m2
15:15 73.2 °F /  22.9 °C 39.9 °F /  4.4 °C 30in /  1016.3hPa Calm   3mph /  4.8km/h 30% 0in /  0.0mm 701 W/m2
15:20 73.2 °F /  22.9 °C 39.9 °F /  4.4 °C 30in /  1016.3hPa NE 2.9mph /  4.7km/h 8mph /  12.9km/h 30% 0in /  0.0mm 696 W/m2
15:25 73.8 °F /  23.2 °C 39.6 °F /  4.2 °C 30in /  1016.3hPa NE 2.9mph /  4.7km/h 4mph /  6.4km/h 29% 0in /  0.0mm 691 W/m2
15:30 74.1 °F /  23.4 °C 39.9 °F /  4.4 °C 30in /  1016.3hPa NNW 4mph /  6.4km/h 4mph /  6.4km/h 29% 0in /  0.0mm 682 W/m2
15:35 74.1 °F /  23.4 °C 39.9 °F /  4.4 °C 30in /  1016.3hPa Calm   2mph /  3.2km/h 29% 0in /  0.0mm 671 W/m2
15:40 74.5 °F /  23.6 °C 40.1 °F /  4.5 °C 30in /  1016.3hPa NNE 0.9mph /  1.4km/h 4mph /  6.4km/h 29% 0in /  0.0mm 666 W/m2
15:45 74.7 °F /  23.7 °C 42.8 °F /  6 °C 30in /  1015.9hPa SSE 0.9mph /  1.4km/h 3mph /  4.8km/h 32% 0in /  0.0mm 659 W/m2
15:50 74.3 °F /  23.5 °C 41.7 °F /  5.4 °C 30in /  1015.9hPa ESE 2.9mph /  4.7km/h 4mph /  6.4km/h 31% 0in /  0.0mm 645 W/m2
15:55 74.3 °F /  23.5 °C 39 °F /  3.9 °C 30in /  1015.9hPa West 4mph /  6.4km/h 4mph /  6.4km/h 28% 0in /  0.0mm 640 W/m2
16:00 73.8 °F /  23.2 °C 41.2 °F /  5.1 °C 30in /  1015.9hPa NE 0.9mph /  1.4km/h 3mph /  4.8km/h 31% 0in /  0.0mm 631 W/m2
16:05 73.9 °F /  23.3 °C 40.5 °F /  4.7 °C 30in /  1015.9hPa NNE 0.9mph /  1.4km/h 5mph /  8km/h 30% 0in /  0.0mm 622 W/m2
16:10 74.5 °F /  23.6 °C 41 °F /  5 °C 30in /  1015.6hPa ENE 2mph /  3.2km/h 6mph /  9.7km/h 30% 0in /  0.0mm 612 W/m2
16:15 74.7 °F /  23.7 °C 40.3 °F /  4.6 °C 30in /  1015.6hPa East 4.9mph /  7.9km/h 5mph /  8km/h 29% 0in /  0.0mm 606 W/m2
16:20 74.5 °F /  23.6 °C 39.2 °F /  4 °C 30in /  1015.6hPa NE 6mph /  9.7km/h 6mph /  9.7km/h 28% 0in /  0.0mm 598 W/m2
16:25 74.3 °F /  23.5 °C 39.9 °F /  4.4 °C 30in /  1015.6hPa SSW 2mph /  3.2km/h 6mph /  9.7km/h 29% 0in /  0.0mm 585 W/m2
16:30 74.1 °F /  23.4 °C 39.9 °F /  4.4 °C 30in /  1015.6hPa SSE 2mph /  3.2km/h 4mph /  6.4km/h 29% 0in /  0.0mm 578 W/m2
16:35 74.3 °F /  23.5 °C 39.9 °F /  4.4 °C 30in /  1015.6hPa NE 0.9mph /  1.4km/h 4mph /  6.4km/h 29% 0in /  0.0mm 563 W/m2
16:40 74.5 °F /  23.6 °C 38.3 °F /  3.5 °C 30in /  1015.6hPa WNW 2mph /  3.2km/h 2mph /  3.2km/h 27% 0in /  0.0mm 557 W/m2
16:45 74.1 °F /  23.4 °C 37.9 °F /  3.3 °C 30in /  1015.6hPa Calm   2mph /  3.2km/h 27% 0in /  0.0mm 540 W/m2
16:50 74.3 °F /  23.5 °C 39.9 °F /  4.4 °C 30in /  1015.6hPa Calm   2mph /  3.2km/h 29% 0in /  0.0mm 533 W/m2
16:55 74.8 °F /  23.8 °C 39.6 °F /  4.2 °C 30in /  1015.2hPa East 0.9mph /  1.4km/h 4mph /  6.4km/h 28% 0in /  0.0mm 519 W/m2
17:00 75.2 °F /  24 °C 39.9 °F /  4.4 °C 30in /  1015.2hPa South 0.9mph /  1.4km/h 2mph /  3.2km/h 28% 0in /  0.0mm 510 W/m2
17:05 75.6 °F /  24.2 °C 41 °F /  5 °C 30in /  1015.2hPa ENE 2mph /  3.2km/h 4mph /  6.4km/h 29% 0in /  0.0mm 496 W/m2
17:10 75.6 °F /  24.2 °C 40.1 °F /  4.5 °C 30in /  1015.2hPa ENE 2mph /  3.2km/h 3mph /  4.8km/h 28% 0in /  0.0mm 487 W/m2
17:15 75.6 °F /  24.2 °C 42.8 °F /  6 °C 30in /  1015.2hPa East 2mph /  3.2km/h 2mph /  3.2km/h 31% 0in /  0.0mm 475 W/m2
17:20 75.4 °F /  24.1 °C 41 °F /  5 °C 30in /  1015.2hPa ESE 0.9mph /  1.4km/h 1mph /  1.6km/h 29% 0in /  0.0mm 459 W/m2
17:25 75.4 °F /  24.1 °C 41 °F /  5 °C 30in /  1015.2hPa ESE 2.9mph /  4.7km/h 4mph /  6.4km/h 29% 0in /  0.0mm 446 W/m2
17:30 75.2 °F /  24 °C 40.8 °F /  4.9 °C 30in /  1015.2hPa SE 2.9mph /  4.7km/h 3mph /  4.8km/h 29% 0in /  0.0mm 436 W/m2
17:35 75 °F /  23.9 °C 39.7 °F /  4.3 °C 30in /  1015.2hPa ENE 2mph /  3.2km/h 2mph /  3.2km/h 28% 0in /  0.0mm 420 W/m2
17:40 74.8 °F /  23.8 °C 40.5 °F /  4.7 °C 30in /  1014.9hPa NW 0.9mph /  1.4km/h 1mph /  1.6km/h 29% 0in /  0.0mm 406 W/m2
17:45 75 °F /  23.9 °C 39.7 °F /  4.3 °C 30in /  1014.9hPa East 0.9mph /  1.4km/h 4mph /  6.4km/h 28% 0in /  0.0mm 397 W/m2
17:50 75.4 °F /  24.1 °C 40.1 °F /  4.5 °C 30in /  1014.9hPa Calm   1mph /  1.6km/h 28% 0in /  0.0mm 383 W/m2
17:55 75.4 °F /  24.1 °C 40.1 °F /  4.5 °C 30in /  1014.9hPa East 2.9mph /  4.7km/h 3mph /  4.8km/h 28% 0in /  0.0mm 369 W/m2
18:00 75.2 °F /  24 °C 38.8 °F /  3.8 °C 30in /  1014.9hPa ENE 2mph /  3.2km/h 5mph /  8km/h 27% 0in /  0.0mm 355 W/m2
18:05 75 °F /  23.9 °C 37.8 °F /  3.2 °C 30in /  1014.9hPa SE 2.9mph /  4.7km/h 3mph /  4.8km/h 26% 0in /  0.0mm 343 W/m2
18:10 74.5 °F /  23.6 °C 39.2 °F /  4 °C 30in /  1014.9hPa ENE 2mph /  3.2km/h 4mph /  6.4km/h 28% 0in /  0.0mm 327 W/m2
18:15 74.5 °F /  23.6 °C 40.1 °F /  4.5 °C 30in /  1014.9hPa East 0.9mph /  1.4km/h 3mph /  4.8km/h 29% 0in /  0.0mm 315 W/m2
18:20 74.8 °F /  23.8 °C 40.5 °F /  4.7 °C 30in /  1014.9hPa Calm   2mph /  3.2km/h 29% 0in /  0.0mm 304 W/m2
18:25 75.2 °F /  24 °C 42.4 °F /  5.8 °C 30in /  1014.9hPa East 0.9mph /  1.4km/h 2mph /  3.2km/h 31% 0in /  0.0mm 292 W/m2
18:30 75.4 °F /  24.1 °C 41.7 °F /  5.4 °C 30in /  1014.9hPa East 0.9mph /  1.4km/h 3mph /  4.8km/h 30% 0in /  0.0mm 278 W/m2
18:35 75.2 °F /  24 °C 42.4 °F /  5.8 °C 30in /  1014.9hPa West 2mph /  3.2km/h 2mph /  3.2km/h 31% 0in /  0.0mm 265 W/m2
18:40 75.6 °F /  24.2 °C 40.1 °F /  4.5 °C 30in /  1014.9hPa Calm   2mph /  3.2km/h 28% 0in /  0.0mm 250 W/m2
18:45 75.6 °F /  24.2 °C 41.9 °F /  5.5 °C 30in /  1014.9hPa Calm   1mph /  1.6km/h 30% 0in /  0.0mm 237 W/m2
18:50 75.6 °F /  24.2 °C 42.8 °F /  6 °C 30in /  1014.9hPa Calm     31% 0in /  0.0mm 225 W/m2
18:55 75.4 °F /  24.1 °C 43.5 °F /  6.4 °C 30in /  1014.9hPa Calm     32% 0in /  0.0mm 207 W/m2
19:00 75 °F /  23.9 °C 43.2 °F /  6.2 °C 30in /  1014.6hPa Calm     32% 0in /  0.0mm 183 W/m2
19:05 74.8 °F /  23.8 °C 46 °F /  7.8 °C 30in /  1014.6hPa WSW 0.9mph /  1.4km/h 1mph /  1.6km/h 36% 0in /  0.0mm 178 W/m2
19:11 74.8 °F /  23.8 °C 46 °F /  7.8 °C 30in /  1014.6hPa WSW 0.9mph /  1.4km/h 2mph /  3.2km/h 36% 0in /  0.0mm 160 W/m2
19:16 74.5 °F /  23.6 °C 46.6 °F /  8.1 °C 30in /  1014.6hPa WSW 0.9mph /  1.4km/h 2mph /  3.2km/h 37% 0in /  0.0mm 144 W/m2
19:21 73.6 °F /  23.1 °C 47.1 °F /  8.4 °C 30in /  1014.6hPa Calm   1mph /  1.6km/h 39% 0in /  0.0mm 130 W/m2
19:26 72.7 °F /  22.6 °C 44.2 °F /  6.8 °C 30in /  1014.6hPa SE 2mph /  3.2km/h 2mph /  3.2km/h 36% 0in /  0.0mm 116 W/m2
19:31 72 °F /  22.2 °C 44.2 °F /  6.8 °C 30in /  1014.6hPa SSE 0.9mph /  1.4km/h 2mph /  3.2km/h 37% 0in /  0.0mm 100 W/m2
19:36 71.1 °F /  21.7 °C 44.2 °F /  6.8 °C 30in /  1014.6hPa SW 0.9mph /  1.4km/h 2mph /  3.2km/h 38% 0in /  0.0mm 88 W/m2
19:41 70.3 °F /  21.3 °C 46.2 °F /  7.9 °C 30in /  1014.6hPa SW 0.9mph /  1.4km/h 1mph /  1.6km/h 42% 0in /  0.0mm 74 W/m2
19:46 69.6 °F /  20.9 °C 44.2 °F /  6.8 °C 30in /  1014.6hPa SW 0.9mph /  1.4km/h 2mph /  3.2km/h 40% 0in /  0.0mm 65 W/m2
19:51 69.1 °F /  20.6 °C 45 °F /  7.2 °C 30in /  1014.6hPa Calm   1mph /  1.6km/h 42% 0in /  0.0mm 54 W/m2
19:56 68.7 °F /  20.4 °C 45.9 °F /  7.7 °C 30in /  1014.6hPa SW 0.9mph /  1.4km/h 1mph /  1.6km/h 44% 0in /  0.0mm 44 W/m2
20:01 68.4 °F /  20.2 °C 45 °F /  7.2 °C 30in /  1014.6hPa SW 0.9mph /  1.4km/h 2mph /  3.2km/h 43% 0in /  0.0mm 25 W/m2
20:06 68.2 °F /  20.1 °C 45.5 °F /  7.5 °C 30in /  1014.6hPa SW 0.9mph /  1.4km/h 2mph /  3.2km/h 44% 0in /  0.0mm 23 W/m2
20:11 67.5 °F /  19.7 °C 44.8 °F /  7.1 °C 30in /  1014.6hPa Calm   2mph /  3.2km/h 44% 0in /  0.0mm 21 W/m2
20:16 66.6 °F /  19.2 °C 44.1 °F /  6.7 °C 30in /  1014.6hPa Calm   2mph /  3.2km/h 44% 0in /  0.0mm 16 W/m2
20:21 66 °F /  18.9 °C 44.1 °F /  6.7 °C 30in /  1014.6hPa SW 0.9mph /  1.4km/h 2mph /  3.2km/h 45% 0in /  0.0mm 14 W/m2
20:27 65.5 °F /  18.6 °C 44.2 °F /  6.8 °C 30in /  1014.6hPa SW 0.9mph /  1.4km/h 2mph /  3.2km/h 46% 0in /  0.0mm 12 W/m2
20:32 64.6 °F /  18.1 °C 43.9 °F /  6.6 °C 30in /  1014.6hPa SW 0.9mph /  1.4km/h 2mph /  3.2km/h 47% 0in /  0.0mm 9 W/m2
20:37 63.9 °F /  17.7 °C 42.6 °F /  5.9 °C 30in /  1014.6hPa Calm     46% 0in /  0.0mm 7 W/m2
20:42 63.3 °F /  17.4 °C 43.3 °F /  6.3 °C 30in /  1014.9hPa Calm   2mph /  3.2km/h 48% 0in /  0.0mm 0 W/m2
20:47 63 °F /  17.2 °C 43 °F /  6.1 °C 30in /  1014.9hPa Calm     48% 0in /  0.0mm 0 W/m2
20:52 62.4 °F /  16.9 °C 42.4 °F /  5.8 °C 30in /  1014.9hPa Calm     48% 0in /  0.0mm 0 W/m2
20:57 62.1 °F /  16.7 °C 42.6 °F /  5.9 °C 30in /  1014.9hPa Calm     49% 0in /  0.0mm 0 W/m2
21:02 61.7 °F /  16.5 °C 42.8 °F /  6 °C 30in /  1014.9hPa Calm     50% 0in /  0.0mm 0 W/m2
21:07 61.2 °F /  16.2 °C 42.4 °F /  5.8 °C 30in /  1014.9hPa Calm     50% 0in /  0.0mm 0 W/m2
21:12 60.8 °F /  16 °C 42.1 °F /  5.6 °C 30in /  1014.9hPa Calm     50% 0in /  0.0mm 0 W/m2
21:17 60.4 °F /  15.8 °C 42.3 °F /  5.7 °C 30in /  1014.9hPa Calm     51% 0in /  0.0mm 0 W/m2
21:22 60.1 °F /  15.6 °C 42.4 °F /  5.8 °C 30in /  1014.9hPa Calm     52% 0in /  0.0mm 0 W/m2
21:27 59.7 °F /  15.4 °C 42.1 °F /  5.6 °C 30in /  1015.2hPa Calm     52% 0in /  0.0mm 0 W/m2
21:32 59.4 °F /  15.2 °C 42.3 °F /  5.7 °C 30in /  1015.2hPa Calm     53% 0in /  0.0mm 0 W/m2
21:37 58.8 °F /  14.9 °C 41.7 °F /  5.4 °C 30in /  1015.2hPa Calm     53% 0in /  0.0mm 0 W/m2
21:42 58.5 °F /  14.7 °C 41.4 °F /  5.2 °C 30in /  1015.2hPa Calm     53% 0in /  0.0mm 0 W/m2
21:47 57.9 °F /  14.4 °C 41.4 °F /  5.2 °C 30in /  1015.2hPa Calm     54% 0in /  0.0mm 0 W/m2
21:52 57.7 °F /  14.3 °C 41.2 °F /  5.1 °C 30in /  1015.2hPa Calm     54% 0in /  0.0mm 0 W/m2
21:57 57.4 °F /  14.1 °C 41.4 °F /  5.2 °C 30in /  1015.2hPa Calm     55% 0in /  0.0mm 0 W/m2
22:02 56.8 °F /  13.8 °C 40.8 °F /  4.9 °C 30in /  1015.2hPa Calm     55% 0in /  0.0mm 0 W/m2
22:07 56.7 °F /  13.7 °C 41.2 °F /  5.1 °C 30in /  1014.9hPa Calm     56% 0in /  0.0mm 0 W/m2
22:12 56.3 °F /  13.5 °C 40.8 °F /  4.9 °C 30in /  1014.9hPa Calm     56% 0in /  0.0mm 0 W/m2
22:17 56.1 °F /  13.4 °C 40.6 °F /  4.8 °C 30in /  1014.9hPa Calm     56% 0in /  0.0mm 0 W/m2
22:22 55.9 °F /  13.3 °C 41 °F /  5 °C 30in /  1015.2hPa Calm     57% 0in /  0.0mm 0 W/m2
22:27 55.8 °F /  13.2 °C 40.8 °F /  4.9 °C 30in /  1014.9hPa Calm     57% 0in /  0.0mm 0 W/m2
22:32 55.6 °F /  13.1 °C 41 °F /  5 °C 30in /  1014.9hPa Calm     58% 0in /  0.0mm 0 W/m2
22:37 55.2 °F /  12.9 °C 40.6 °F /  4.8 °C 30in /  1014.9hPa Calm     58% 0in /  0.0mm 0 W/m2
22:42 54.9 °F /  12.7 °C 40.8 °F /  4.9 °C 30in /  1014.9hPa Calm     59% 0in /  0.0mm 0 W/m2
22:47 54.7 °F /  12.6 °C 40.6 °F /  4.8 °C 30in /  1014.9hPa Calm     59% 0in /  0.0mm 0 W/m2
22:52 54.3 °F /  12.4 °C 40.8 °F /  4.9 °C 30in /  1014.9hPa Calm     60% 0in /  0.0mm 0 W/m2
22:57 54.1 °F /  12.3 °C 41 °F /  5 °C 30in /  1014.9hPa Calm     61% 0in /  0.0mm 0 W/m2
23:02 54 °F /  12.2 °C 41.2 °F /  5.1 °C 30in /  1014.9hPa Calm     62% 0in /  0.0mm 0 W/m2
23:07 53.8 °F /  12.1 °C 40.6 °F /  4.8 °C 30in /  1014.9hPa Calm     61% 0in /  0.0mm 0 W/m2
23:12 53.6 °F /  12 °C 40.8 °F /  4.9 °C 30in /  1014.9hPa Calm     62% 0in /  0.0mm 0 W/m2
23:17 53.8 °F /  12.1 °C 40.6 °F /  4.8 °C 30in /  1014.9hPa Calm     61% 0in /  0.0mm 0 W/m2
23:22 54 °F /  12.2 °C 40.8 °F /  4.9 °C 30in /  1014.9hPa Calm     61% 0in /  0.0mm 0 W/m2
23:27 54.1 °F /  12.3 °C 41 °F /  5 °C 30in /  1014.9hPa Calm     61% 0in /  0.0mm 0 W/m2
23:32 54.1 °F /  12.3 °C 41 °F /  5 °C 30in /  1014.9hPa Calm     61% 0in /  0.0mm 0 W/m2
23:37 54 °F /  12.2 °C 41.2 °F /  5.1 °C 30in /  1014.6hPa Calm     62% 0in /  0.0mm 0 W/m2
23:42 53.8 °F /  12.1 °C 41 °F /  5 °C 30in /  1014.6hPa Calm     62% 0in /  0.0mm 0 W/m2
23:47 53.4 °F /  11.9 °C 41.2 °F /  5.1 °C 30in /  1014.9hPa Calm     63% 0in /  0.0mm 0 W/m2
23:52 53.2 °F /  11.8 °C 41 °F /  5 °C 30in /  1014.9hPa West 2mph /  3.2km/h 2mph /  3.2km/h 63% 0in /  0.0mm 0 W/m2
23:57 53.2 °F /  11.8 °C 41 °F /  5 °C 30in /  1014.9hPa West 2mph /  3.2km/h 2mph /  3.2km/h 63% 0in /  0.0mm 0 W/m2
Juneau County Weather
Compliments of Weather Underground - 2 mb